sensor_id;sensor_type;location;lat;lon;timestamp;temperature;humidity
33803;DHT22;20110;53.120;5.786;2023-01-15T00:01:49;4.90;99.90
33803;DHT22;20110;53.120;5.786;2023-01-15T00:04:14;4.70;99.90
33803;DHT22;20110;53.120;5.786;2023-01-15T00:06:42;4.90;99.90
33803;DHT22;20110;53.120;5.786;2023-01-15T00:09:13;5.10;99.90
33803;DHT22;20110;53.120;5.786;2023-01-15T00:11:40;5.00;99.90
33803;DHT22;20110;53.120;5.786;2023-01-15T00:14:05;5.10;99.90
33803;DHT22;20110;53.120;5.786;2023-01-15T00:16:31;5.10;99.90
33803;DHT22;20110;53.120;5.786;2023-01-15T00:19:00;5.20;99.90
33803;DHT22;20110;53.120;5.786;2023-01-15T00:21:28;5.20;99.90
33803;DHT22;20110;53.120;5.786;2023-01-15T00:23:56;5.10;99.90
33803;DHT22;20110;53.120;5.786;2023-01-15T00:26:40;5.10;99.90
33803;DHT22;20110;53.120;5.786;2023-01-15T00:29:26;5.20;99.90
33803;DHT22;20110;53.120;5.786;2023-01-15T00:32:01;5.20;99.90
33803;DHT22;20110;53.120;5.786;2023-01-15T00:34:31;5.10;99.90
33803;DHT22;20110;53.120;5.786;2023-01-15T00:36:58;5.00;99.90
33803;DHT22;20110;53.120;5.786;2023-01-15T00:39:24;5.20;99.90
33803;DHT22;20110;53.120;5.786;2023-01-15T00:41:51;5.10;99.90
33803;DHT22;20110;53.120;5.786;2023-01-15T00:44:19;5.10;99.90
33803;DHT22;20110;53.120;5.786;2023-01-15T00:46:45;5.10;99.90
33803;DHT22;20110;53.120;5.786;2023-01-15T00:49:12;5.20;99.90
33803;DHT22;20110;53.120;5.786;2023-01-15T00:51:38;5.20;99.90
33803;DHT22;20110;53.120;5.786;2023-01-15T00:54:04;5.30;99.90
33803;DHT22;20110;53.120;5.786;2023-01-15T00:56:30;5.20;99.90
33803;DHT22;20110;53.120;5.786;2023-01-15T00:58:57;5.10;99.90
33803;DHT22;20110;53.120;5.786;2023-01-15T01:01:25;5.00;99.90
33803;DHT22;20110;53.120;5.786;2023-01-15T01:03:51;5.00;99.90
33803;DHT22;20110;53.120;5.786;2023-01-15T01:06:18;5.00;99.90
33803;DHT22;20110;53.120;5.786;2023-01-15T01:08:45;5.00;99.90
33803;DHT22;20110;53.120;5.786;2023-01-15T01:11:14;5.10;99.90
33803;DHT22;20110;53.120;5.786;2023-01-15T01:13:42;5.10;99.90
33803;DHT22;20110;53.120;5.786;2023-01-15T01:16:32;5.10;99.90
33803;DHT22;20110;53.120;5.786;2023-01-15T01:19:05;5.10;99.90
33803;DHT22;20110;53.120;5.786;2023-01-15T01:21:38;5.10;99.90
33803;DHT22;20110;53.120;5.786;2023-01-15T01:24:05;5.20;99.90
33803;DHT22;20110;53.120;5.786;2023-01-15T01:26:33;5.20;99.90
33803;DHT22;20110;53.120;5.786;2023-01-15T01:28:59;5.20;99.90
33803;DHT22;20110;53.120;5.786;2023-01-15T01:31:25;5.40;99.90
33803;DHT22;20110;53.120;5.786;2023-01-15T01:33:53;5.40;99.90
33803;DHT22;20110;53.120;5.786;2023-01-15T01:36:30;5.40;99.90
33803;DHT22;20110;53.120;5.786;2023-01-15T01:39:04;5.50;99.90
33803;DHT22;20110;53.120;5.786;2023-01-15T01:41:32;5.40;99.90
33803;DHT22;20110;53.120;5.786;2023-01-15T01:46:34;5.30;99.90
33803;DHT22;20110;53.120;5.786;2023-01-15T01:49:05;5.10;99.90
33803;DHT22;20110;53.120;5.786;2023-01-15T01:51:37;5.00;99.90
33803;DHT22;20110;53.120;5.786;2023-01-15T01:54:08;5.00;99.90
33803;DHT22;20110;53.120;5.786;2023-01-15T01:56:35;4.90;99.90
33803;DHT22;20110;53.120;5.786;2023-01-15T01:59:02;5.00;99.90
33803;DHT22;20110;53.120;5.786;2023-01-15T02:01:30;5.00;99.90
33803;DHT22;20110;53.120;5.786;2023-01-15T02:03:56;5.10;99.90
33803;DHT22;20110;53.120;5.786;2023-01-15T02:06:24;5.00;99.90
33803;DHT22;20110;53.120;5.786;2023-01-15T02:08:51;5.20;99.90
33803;DHT22;20110;53.120;5.786;2023-01-15T02:11:20;5.20;99.90
33803;DHT22;20110;53.120;5.786;2023-01-15T02:14:04;5.20;99.90
33803;DHT22;20110;53.120;5.786;2023-01-15T02:17:10;5.20;99.90
33803;DHT22;20110;53.120;5.786;2023-01-15T02:28:30;5.20;99.90
33803;DHT22;20110;53.120;5.786;2023-01-15T02:31:13;5.10;99.90
33803;DHT22;20110;53.120;5.786;2023-01-15T02:34:43;5.10;99.90
33803;DHT22;20110;53.120;5.786;2023-01-15T02:37:05;5.00;99.90
33803;DHT22;20110;53.120;5.786;2023-01-15T02:39:37;5.10;99.90
33803;DHT22;20110;53.120;5.786;2023-01-15T02:42:08;5.00;99.90
33803;DHT22;20110;53.120;5.786;2023-01-15T02:44:40;5.10;99.90
33803;DHT22;20110;53.120;5.786;2023-01-15T02:47:10;5.10;99.90
33803;DHT22;20110;53.120;5.786;2023-01-15T02:49:38;5.10;99.90
33803;DHT22;20110;53.120;5.786;2023-01-15T02:52:09;5.10;99.90
33803;DHT22;20110;53.120;5.786;2023-01-15T02:54:45;5.10;99.90
33803;DHT22;20110;53.120;5.786;2023-01-15T02:57:14;5.00;99.90
33803;DHT22;20110;53.120;5.786;2023-01-15T02:59:46;4.90;99.90
33803;DHT22;20110;53.120;5.786;2023-01-15T03:02:19;5.00;99.90
33803;DHT22;20110;53.120;5.786;2023-01-15T03:05:02;5.00;99.90
33803;DHT22;20110;53.120;5.786;2023-01-15T03:07:47;4.80;99.90
33803;DHT22;20110;53.120;5.786;2023-01-15T03:10:17;4.70;99.90
33803;DHT22;20110;53.120;5.786;2023-01-15T03:12:49;5.00;99.90
33803;DHT22;20110;53.120;5.786;2023-01-15T03:18:44;4.90;99.90
33803;DHT22;20110;53.120;5.786;2023-01-15T03:21:27;4.90;99.90
33803;DHT22;20110;53.120;5.786;2023-01-15T03:24:03;4.90;99.90
33803;DHT22;20110;53.120;5.786;2023-01-15T03:26:31;4.90;99.90
33803;DHT22;20110;53.120;5.786;2023-01-15T03:28:57;4.80;99.90
33803;DHT22;20110;53.120;5.786;2023-01-15T03:31:25;4.80;99.90
33803;DHT22;20110;53.120;5.786;2023-01-15T03:33:50;4.80;99.90
33803;DHT22;20110;53.120;5.786;2023-01-15T03:36:16;4.90;99.90
33803;DHT22;20110;53.120;5.786;2023-01-15T03:38:42;4.80;99.90
33803;DHT22;20110;53.120;5.786;2023-01-15T03:41:43;4.80;99.90
33803;DHT22;20110;53.120;5.786;2023-01-15T03:48:00;4.70;99.90
33803;DHT22;20110;53.120;5.786;2023-01-15T03:50:47;4.70;99.90
33803;DHT22;20110;53.120;5.786;2023-01-15T03:53:32;4.70;99.90
33803;DHT22;20110;53.120;5.786;2023-01-15T03:59:15;4.80;99.90
33803;DHT22;20110;53.120;5.786;2023-01-15T04:01:48;4.80;99.90
33803;DHT22;20110;53.120;5.786;2023-01-15T04:04:16;4.70;99.90
33803;DHT22;20110;53.120;5.786;2023-01-15T04:06:43;4.80;99.90
33803;DHT22;20110;53.120;5.786;2023-01-15T04:09:11;4.70;99.90
33803;DHT22;20110;53.120;5.786;2023-01-15T04:11:39;4.70;99.90
33803;DHT22;20110;53.120;5.786;2023-01-15T04:14:05;4.60;99.90
33803;DHT22;20110;53.120;5.786;2023-01-15T04:16:32;4.70;99.90
33803;DHT22;20110;53.120;5.786;2023-01-15T04:18:59;4.70;99.90
33803;DHT22;20110;53.120;5.786;2023-01-15T04:21:25;4.70;99.90
33803;DHT22;20110;53.120;5.786;2023-01-15T04:23:51;4.60;99.90
33803;DHT22;20110;53.120;5.786;2023-01-15T04:26:17;4.60;99.90
33803;DHT22;20110;53.120;5.786;2023-01-15T04:28:44;4.60;99.90
33803;DHT22;20110;53.120;5.786;2023-01-15T04:31:10;4.60;99.90
33803;DHT22;20110;53.120;5.786;2023-01-15T04:33:36;4.50;99.90
33803;DHT22;20110;53.120;5.786;2023-01-15T04:36:03;4.60;99.90
33803;DHT22;20110;53.120;5.786;2023-01-15T04:38:30;4.60;99.90
33803;DHT22;20110;53.120;5.786;2023-01-15T04:41:00;4.70;99.90
33803;DHT22;20110;53.120;5.786;2023-01-15T04:43:45;4.60;99.90
33803;DHT22;20110;53.120;5.786;2023-01-15T04:46:29;4.50;99.90
33803;DHT22;20110;53.120;5.786;2023-01-15T04:48:55;4.50;99.90
33803;DHT22;20110;53.120;5.786;2023-01-15T04:51:20;4.40;99.90
33803;DHT22;20110;53.120;5.786;2023-01-15T04:53:46;4.50;99.90
33803;DHT22;20110;53.120;5.786;2023-01-15T04:56:12;4.40;99.90
33803;DHT22;20110;53.120;5.786;2023-01-15T04:58:38;4.40;99.90
33803;DHT22;20110;53.120;5.786;2023-01-15T05:01:13;4.40;99.90
33803;DHT22;20110;53.120;5.786;2023-01-15T05:03:40;4.30;99.90
33803;DHT22;20110;53.120;5.786;2023-01-15T05:06:07;4.30;99.90
33803;DHT22;20110;53.120;5.786;2023-01-15T05:08:34;4.20;99.90
33803;DHT22;20110;53.120;5.786;2023-01-15T05:11:05;4.40;99.90
33803;DHT22;20110;53.120;5.786;2023-01-15T05:13:32;4.40;99.90
33803;DHT22;20110;53.120;5.786;2023-01-15T05:16:22;4.30;99.90
33803;DHT22;20110;53.120;5.786;2023-01-15T05:18:52;4.20;99.90
33803;DHT22;20110;53.120;5.786;2023-01-15T05:21:26;4.20;99.90
33803;DHT22;20110;53.120;5.786;2023-01-15T05:23:56;4.10;99.90
33803;DHT22;20110;53.120;5.786;2023-01-15T05:26:23;4.00;99.90
33803;DHT22;20110;53.120;5.786;2023-01-15T05:28:52;4.10;99.90
33803;DHT22;20110;53.120;5.786;2023-01-15T05:31:19;4.20;99.90
33803;DHT22;20110;53.120;5.786;2023-01-15T05:33:47;4.10;99.90
33803;DHT22;20110;53.120;5.786;2023-01-15T05:36:16;4.10;99.90
33803;DHT22;20110;53.120;5.786;2023-01-15T05:38:44;4.20;99.90
33803;DHT22;20110;53.120;5.786;2023-01-15T05:41:13;4.20;99.90
33803;DHT22;20110;53.120;5.786;2023-01-15T05:44:04;4.10;99.90
33803;DHT22;20110;53.120;5.786;2023-01-15T05:46:33;4.20;99.90
33803;DHT22;20110;53.120;5.786;2023-01-15T05:49:01;4.10;99.90
33803;DHT22;20110;53.120;5.786;2023-01-15T05:51:29;4.20;99.90
33803;DHT22;20110;53.120;5.786;2023-01-15T05:53:58;4.20;99.90
33803;DHT22;20110;53.120;5.786;2023-01-15T05:56:24;4.30;99.90
33803;DHT22;20110;53.120;5.786;2023-01-15T05:58:51;4.20;99.90
33803;DHT22;20110;53.120;5.786;2023-01-15T06:01:17;4.20;99.90
33803;DHT22;20110;53.120;5.786;2023-01-15T06:03:44;4.30;99.90
33803;DHT22;20110;53.120;5.786;2023-01-15T06:06:16;4.40;99.90
33803;DHT22;20110;53.120;5.786;2023-01-15T06:08:43;4.10;99.90
33803;DHT22;20110;53.120;5.786;2023-01-15T06:11:09;4.30;99.90
33803;DHT22;20110;53.120;5.786;2023-01-15T06:13:37;4.20;99.90
33803;DHT22;20110;53.120;5.786;2023-01-15T06:16:04;4.30;99.90
33803;DHT22;20110;53.120;5.786;2023-01-15T06:18:31;4.20;99.90
33803;DHT22;20110;53.120;5.786;2023-01-15T06:21:02;4.10;99.90
33803;DHT22;20110;53.120;5.786;2023-01-15T06:23:29;4.20;99.90
33803;DHT22;20110;53.120;5.786;2023-01-15T06:26:00;4.10;99.90
33803;DHT22;20110;53.120;5.786;2023-01-15T06:28:27;4.20;99.90
33803;DHT22;20110;53.120;5.786;2023-01-15T06:30:53;4.10;99.90
33803;DHT22;20110;53.120;5.786;2023-01-15T06:33:18;4.00;99.90
33803;DHT22;20110;53.120;5.786;2023-01-15T06:35:45;4.00;99.90
33803;DHT22;20110;53.120;5.786;2023-01-15T06:38:11;4.10;99.90
33803;DHT22;20110;53.120;5.786;2023-01-15T06:40:37;4.00;99.90
33803;DHT22;20110;53.120;5.786;2023-01-15T06:43:02;4.20;99.90
33803;DHT22;20110;53.120;5.786;2023-01-15T06:45:47;4.20;99.90
33803;DHT22;20110;53.120;5.786;2023-01-15T06:48:32;4.10;99.90
33803;DHT22;20110;53.120;5.786;2023-01-15T06:50:58;4.10;99.90
33803;DHT22;20110;53.120;5.786;2023-01-15T06:53:24;4.10;99.90
33803;DHT22;20110;53.120;5.786;2023-01-15T06:55:50;4.30;99.90
33803;DHT22;20110;53.120;5.786;2023-01-15T06:58:16;4.30;99.90
33803;DHT22;20110;53.120;5.786;2023-01-15T07:00:42;4.40;99.90
33803;DHT22;20110;53.120;5.786;2023-01-15T07:03:09;4.40;99.90
33803;DHT22;20110;53.120;5.786;2023-01-15T07:05:38;4.30;99.90
33803;DHT22;20110;53.120;5.786;2023-01-15T07:08:05;4.30;99.90
33803;DHT22;20110;53.120;5.786;2023-01-15T07:10:33;4.30;99.90
33803;DHT22;20110;53.120;5.786;2023-01-15T07:12:59;4.30;99.90
33803;DHT22;20110;53.120;5.786;2023-01-15T07:15:25;4.40;99.90
33803;DHT22;20110;53.120;5.786;2023-01-15T07:17:55;4.50;99.90
33803;DHT22;20110;53.120;5.786;2023-01-15T07:20:22;4.40;99.90
33803;DHT22;20110;53.120;5.786;2023-01-15T07:22:49;4.40;99.90
33803;DHT22;20110;53.120;5.786;2023-01-15T07:25:15;4.30;99.90
33803;DHT22;20110;53.120;5.786;2023-01-15T07:27:41;4.40;99.90
33803;DHT22;20110;53.120;5.786;2023-01-15T07:30:08;4.30;99.90
33803;DHT22;20110;53.120;5.786;2023-01-15T07:32:34;4.30;99.90
33803;DHT22;20110;53.120;5.786;2023-01-15T07:35:00;4.30;99.90
33803;DHT22;20110;53.120;5.786;2023-01-15T07:37:25;4.30;99.90
33803;DHT22;20110;53.120;5.786;2023-01-15T07:39:51;4.30;99.90
33803;DHT22;20110;53.120;5.786;2023-01-15T07:42:17;4.40;99.90
33803;DHT22;20110;53.120;5.786;2023-01-15T07:45:01;4.30;99.90
33803;DHT22;20110;53.120;5.786;2023-01-15T07:47:45;4.30;99.90
33803;DHT22;20110;53.120;5.786;2023-01-15T07:50:30;4.40;99.90
33803;DHT22;20110;53.120;5.786;2023-01-15T07:52:56;4.40;99.90
33803;DHT22;20110;53.120;5.786;2023-01-15T07:55:22;4.30;99.90
33803;DHT22;20110;53.120;5.786;2023-01-15T07:57:48;4.40;99.90
33803;DHT22;20110;53.120;5.786;2023-01-15T08:00:19;4.40;99.90
33803;DHT22;20110;53.120;5.786;2023-01-15T08:02:46;4.40;99.90
33803;DHT22;20110;53.120;5.786;2023-01-15T08:05:15;4.30;99.90
33803;DHT22;20110;53.120;5.786;2023-01-15T08:07:42;4.30;99.90
33803;DHT22;20110;53.120;5.786;2023-01-15T08:10:12;4.20;99.90
33803;DHT22;20110;53.120;5.786;2023-01-15T08:12:39;4.20;99.90
33803;DHT22;20110;53.120;5.786;2023-01-15T08:15:24;4.20;99.90
33803;DHT22;20110;53.120;5.786;2023-01-15T08:17:50;4.30;99.90
33803;DHT22;20110;53.120;5.786;2023-01-15T08:20:22;4.20;99.90
33803;DHT22;20110;53.120;5.786;2023-01-15T08:22:50;4.30;99.90
33803;DHT22;20110;53.120;5.786;2023-01-15T08:25:18;4.20;99.90
33803;DHT22;20110;53.120;5.786;2023-01-15T08:27:46;4.10;99.90
33803;DHT22;20110;53.120;5.786;2023-01-15T08:30:23;4.00;99.90
33803;DHT22;20110;53.120;5.786;2023-01-15T08:32:49;4.20;99.90
33803;DHT22;20110;53.120;5.786;2023-01-15T08:35:15;4.00;99.90
33803;DHT22;20110;53.120;5.786;2023-01-15T08:37:41;4.00;99.90
33803;DHT22;20110;53.120;5.786;2023-01-15T08:40:09;4.10;99.90
33803;DHT22;20110;53.120;5.786;2023-01-15T08:42:35;4.20;99.90
33803;DHT22;20110;53.120;5.786;2023-01-15T08:45:01;4.10;99.90
33803;DHT22;20110;53.120;5.786;2023-01-15T08:47:27;4.10;99.90
33803;DHT22;20110;53.120;5.786;2023-01-15T08:49:53;4.20;99.90
33803;DHT22;20110;53.120;5.786;2023-01-15T08:52:19;4.30;99.90
33803;DHT22;20110;53.120;5.786;2023-01-15T08:54:45;4.40;99.90
33803;DHT22;20110;53.120;5.786;2023-01-15T08:57:10;4.20;99.90
33803;DHT22;20110;53.120;5.786;2023-01-15T08:59:38;4.40;99.90
33803;DHT22;20110;53.120;5.786;2023-01-15T09:02:04;4.40;99.90
33803;DHT22;20110;53.120;5.786;2023-01-15T09:04:30;4.30;99.90
33803;DHT22;20110;53.120;5.786;2023-01-15T09:06:55;4.40;99.90
33803;DHT22;20110;53.120;5.786;2023-01-15T09:09:21;4.60;99.90
33803;DHT22;20110;53.120;5.786;2023-01-15T09:11:47;4.60;99.90
33803;DHT22;20110;53.120;5.786;2023-01-15T09:14:14;4.70;99.90
33803;DHT22;20110;53.120;5.786;2023-01-15T09:16:40;4.80;99.90
33803;DHT22;20110;53.120;5.786;2023-01-15T09:19:09;4.90;99.90
33803;DHT22;20110;53.120;5.786;2023-01-15T09:21:35;4.90;99.90
33803;DHT22;20110;53.120;5.786;2023-01-15T09:24:01;4.90;99.90
33803;DHT22;20110;53.120;5.786;2023-01-15T09:26:36;5.00;99.90
33803;DHT22;20110;53.120;5.786;2023-01-15T09:29:05;5.30;99.90
33803;DHT22;20110;53.120;5.786;2023-01-15T09:31:32;5.40;99.90
33803;DHT22;20110;53.120;5.786;2023-01-15T09:33:57;5.20;99.90
33803;DHT22;20110;53.120;5.786;2023-01-15T09:36:27;5.00;99.90
33803;DHT22;20110;53.120;5.786;2023-01-15T09:38:56;4.90;99.90
33803;DHT22;20110;53.120;5.786;2023-01-15T09:41:24;5.00;99.90
33803;DHT22;20110;53.120;5.786;2023-01-15T09:44:48;5.20;99.90
33803;DHT22;20110;53.120;5.786;2023-01-15T09:53:44;5.30;99.90
33803;DHT22;20110;53.120;5.786;2023-01-15T09:56:30;5.40;99.90
33803;DHT22;20110;53.120;5.786;2023-01-15T09:59:17;5.20;99.90
33803;DHT22;20110;53.120;5.786;2023-01-15T10:01:48;5.10;99.90
33803;DHT22;20110;53.120;5.786;2023-01-15T10:04:38;4.70;99.90
33803;DHT22;20110;53.120;5.786;2023-01-15T10:07:23;4.60;99.90
33803;DHT22;20110;53.120;5.786;2023-01-15T10:10:10;4.70;99.90
33803;DHT22;20110;53.120;5.786;2023-01-15T10:12:43;4.80;99.90
33803;DHT22;20110;53.120;5.786;2023-01-15T10:15:21;4.90;99.90
33803;DHT22;20110;53.120;5.786;2023-01-15T10:17:55;4.90;99.90
33803;DHT22;20110;53.120;5.786;2023-01-15T10:26:59;5.60;99.90
33803;DHT22;20110;53.120;5.786;2023-01-15T10:29:48;5.80;99.90
33803;DHT22;20110;53.120;5.786;2023-01-15T10:32:21;6.00;99.90
33803;DHT22;20110;53.120;5.786;2023-01-15T10:44:14;6.40;99.90
33803;DHT22;20110;53.120;5.786;2023-01-15T10:46:52;6.10;99.90
33803;DHT22;20110;53.120;5.786;2023-01-15T10:49:21;5.90;99.90
33803;DHT22;20110;53.120;5.786;2023-01-15T10:51:57;5.80;99.90
33803;DHT22;20110;53.120;5.786;2023-01-15T10:54:37;5.80;99.90
33803;DHT22;20110;53.120;5.786;2023-01-15T11:00:01;5.90;99.90
33803;DHT22;20110;53.120;5.786;2023-01-15T11:02:53;5.90;99.90
33803;DHT22;20110;53.120;5.786;2023-01-15T11:05:26;5.90;99.90
33803;DHT22;20110;53.120;5.786;2023-01-15T11:07:52;5.90;99.90
33803;DHT22;20110;53.120;5.786;2023-01-15T11:10:20;6.00;99.90
33803;DHT22;20110;53.120;5.786;2023-01-15T11:12:56;5.90;99.90
33803;DHT22;20110;53.120;5.786;2023-01-15T11:16:00;6.00;99.90
33803;DHT22;20110;53.120;5.786;2023-01-15T11:18:45;5.90;99.90
33803;DHT22;20110;53.120;5.786;2023-01-15T11:21:30;5.90;99.90
33803;DHT22;20110;53.120;5.786;2023-01-15T11:23:58;5.80;99.90
33803;DHT22;20110;53.120;5.786;2023-01-15T11:26:29;5.70;99.90
33803;DHT22;20110;53.120;5.786;2023-01-15T11:28:58;5.50;99.90
33803;DHT22;20110;53.120;5.786;2023-01-15T11:31:37;5.50;99.90
33803;DHT22;20110;53.120;5.786;2023-01-15T11:34:13;5.40;99.90
33803;DHT22;20110;53.120;5.786;2023-01-15T11:36:46;5.30;99.90
33803;DHT22;20110;53.120;5.786;2023-01-15T11:39:26;5.30;99.90
33803;DHT22;20110;53.120;5.786;2023-01-15T11:42:18;5.20;99.90
33803;DHT22;20110;53.120;5.786;2023-01-15T11:45:11;5.30;99.90
33803;DHT22;20110;53.120;5.786;2023-01-15T11:47:58;5.20;99.90
33803;DHT22;20110;53.120;5.786;2023-01-15T11:51:01;5.10;99.90
33803;DHT22;20110;53.120;5.786;2023-01-15T11:53:50;5.00;99.90
33803;DHT22;20110;53.120;5.786;2023-01-15T11:56:24;4.70;99.90
33803;DHT22;20110;53.120;5.786;2023-01-15T11:58:55;3.80;99.90
33803;DHT22;20110;53.120;5.786;2023-01-15T12:01:25;3.70;99.90
33803;DHT22;20110;53.120;5.786;2023-01-15T12:04:17;3.60;99.90
33803;DHT22;20110;53.120;5.786;2023-01-15T12:06:50;3.60;99.90
33803;DHT22;20110;53.120;5.786;2023-01-15T12:13:03;3.80;99.90
33803;DHT22;20110;53.120;5.786;2023-01-15T12:21:31;4.10;99.90
33803;DHT22;20110;53.120;5.786;2023-01-15T12:30:03;4.00;99.90
33803;DHT22;20110;53.120;5.786;2023-01-15T12:33:18;4.10;99.90
33803;DHT22;20110;53.120;5.786;2023-01-15T12:36:23;4.10;99.90
33803;DHT22;20110;53.120;5.786;2023-01-15T12:39:00;4.10;99.90
33803;DHT22;20110;53.120;5.786;2023-01-15T12:41:33;4.20;99.90
33803;DHT22;20110;53.120;5.786;2023-01-15T12:47:46;4.20;99.90
33803;DHT22;20110;53.120;5.786;2023-01-15T12:51:03;4.30;99.90
33803;DHT22;20110;53.120;5.786;2023-01-15T13:07:45;4.30;99.90
33803;DHT22;20110;53.120;5.786;2023-01-15T13:10:29;4.30;99.90
33803;DHT22;20110;53.120;5.786;2023-01-15T13:13:18;4.40;99.90
33803;DHT22;20110;53.120;5.786;2023-01-15T13:16:32;4.40;99.90
33803;DHT22;20110;53.120;5.786;2023-01-15T13:19:39;4.50;99.90
33803;DHT22;20110;53.120;5.786;2023-01-15T13:22:23;4.50;99.90
33803;DHT22;20110;53.120;5.786;2023-01-15T13:25:06;4.50;99.90
33803;DHT22;20110;53.120;5.786;2023-01-15T13:36:15;4.50;99.90
33803;DHT22;20110;53.120;5.786;2023-01-15T13:38:47;4.50;99.90
33803;DHT22;20110;53.120;5.786;2023-01-15T13:41:27;4.50;99.90
33803;DHT22;20110;53.120;5.786;2023-01-15T13:44:19;4.50;99.90
33803;DHT22;20110;53.120;5.786;2023-01-15T13:46:57;4.50;99.90
33803;DHT22;20110;53.120;5.786;2023-01-15T13:49:39;4.60;99.90
33803;DHT22;20110;53.120;5.786;2023-01-15T13:52:30;4.70;99.90
33803;DHT22;20110;53.120;5.786;2023-01-15T13:55:18;4.70;99.90
33803;DHT22;20110;53.120;5.786;2023-01-15T13:57:59;4.70;99.90
33803;DHT22;20110;53.120;5.786;2023-01-15T14:00:31;4.70;99.90
33803;DHT22;20110;53.120;5.786;2023-01-15T14:03:21;4.70;99.90
33803;DHT22;20110;53.120;5.786;2023-01-15T14:06:07;4.80;99.90
33803;DHT22;20110;53.120;5.786;2023-01-15T14:08:38;4.80;99.90
33803;DHT22;20110;53.120;5.786;2023-01-15T14:34:03;4.90;99.90
33803;DHT22;20110;53.120;5.786;2023-01-15T14:36:28;5.10;99.90
33803;DHT22;20110;53.120;5.786;2023-01-15T14:39:00;4.90;99.90
33803;DHT22;20110;53.120;5.786;2023-01-15T14:41:30;4.90;99.90
33803;DHT22;20110;53.120;5.786;2023-01-15T14:44:28;5.00;99.90
33803;DHT22;20110;53.120;5.786;2023-01-15T14:47:01;4.90;99.90
33803;DHT22;20110;53.120;5.786;2023-01-15T14:49:42;4.90;99.90
33803;DHT22;20110;53.120;5.786;2023-01-15T14:52:21;4.80;99.90
33803;DHT22;20110;53.120;5.786;2023-01-15T14:54:48;5.00;99.90
33803;DHT22;20110;53.120;5.786;2023-01-15T14:57:15;4.80;99.90
33803;DHT22;20110;53.120;5.786;2023-01-15T14:59:50;5.00;99.90
33803;DHT22;20110;53.120;5.786;2023-01-15T15:02:38;4.80;99.90
33803;DHT22;20110;53.120;5.786;2023-01-15T15:05:16;4.70;99.90
33803;DHT22;20110;53.120;5.786;2023-01-15T15:07:47;4.70;99.90
33803;DHT22;20110;53.120;5.786;2023-01-15T15:10:47;4.70;99.90
33803;DHT22;20110;53.120;5.786;2023-01-15T15:13:15;4.60;99.90
33803;DHT22;20110;53.120;5.786;2023-01-15T15:21:55;4.50;99.90
33803;DHT22;20110;53.120;5.786;2023-01-15T15:27:17;4.50;99.90
33803;DHT22;20110;53.120;5.786;2023-01-15T15:29:45;4.50;99.90
33803;DHT22;20110;53.120;5.786;2023-01-15T15:32:17;4.40;99.90
33803;DHT22;20110;53.120;5.786;2023-01-15T15:34:49;4.40;99.90
33803;DHT22;20110;53.120;5.786;2023-01-15T15:37:23;4.40;99.90
33803;DHT22;20110;53.120;5.786;2023-01-15T15:40:15;4.30;99.90
33803;DHT22;20110;53.120;5.786;2023-01-15T15:43:12;4.30;99.90
33803;DHT22;20110;53.120;5.786;2023-01-15T15:46:27;4.20;99.90
33803;DHT22;20110;53.120;5.786;2023-01-15T15:49:14;4.30;99.90
33803;DHT22;20110;53.120;5.786;2023-01-15T15:51:51;4.20;99.90
33803;DHT22;20110;53.120;5.786;2023-01-15T15:54:25;4.20;99.90
33803;DHT22;20110;53.120;5.786;2023-01-15T15:56:56;4.40;99.90
33803;DHT22;20110;53.120;5.786;2023-01-15T15:59:50;4.40;99.90
33803;DHT22;20110;53.120;5.786;2023-01-15T16:02:38;4.40;99.90
33803;DHT22;20110;53.120;5.786;2023-01-15T16:07:44;4.30;99.90
33803;DHT22;20110;53.120;5.786;2023-01-15T16:12:43;4.60;99.90
33803;DHT22;20110;53.120;5.786;2023-01-15T16:15:23;4.80;99.90
33803;DHT22;20110;53.120;5.786;2023-01-15T16:17:54;4.80;99.90
33803;DHT22;20110;53.120;5.786;2023-01-15T16:20:22;4.80;99.90
33803;DHT22;20110;53.120;5.786;2023-01-15T16:23:02;4.60;99.90
33803;DHT22;20110;53.120;5.786;2023-01-15T16:25:35;4.30;99.90
33803;DHT22;20110;53.120;5.786;2023-01-15T16:28:05;4.30;99.90
33803;DHT22;20110;53.120;5.786;2023-01-15T16:30:32;4.40;99.90
33803;DHT22;20110;53.120;5.786;2023-01-15T16:33:04;4.00;99.90
33803;DHT22;20110;53.120;5.786;2023-01-15T16:35:33;4.20;99.90
33803;DHT22;20110;53.120;5.786;2023-01-15T16:38:02;4.10;99.90
33803;DHT22;20110;53.120;5.786;2023-01-15T16:40:32;4.00;99.90
33803;DHT22;20110;53.120;5.786;2023-01-15T16:43:32;3.80;99.90
33803;DHT22;20110;53.120;5.786;2023-01-15T16:46:18;4.10;99.90
33803;DHT22;20110;53.120;5.786;2023-01-15T16:48:45;3.80;99.90
33803;DHT22;20110;53.120;5.786;2023-01-15T16:51:30;3.80;99.90
33803;DHT22;20110;53.120;5.786;2023-01-15T16:54:02;3.90;99.90
33803;DHT22;20110;53.120;5.786;2023-01-15T16:59:16;4.20;99.90
33803;DHT22;20110;53.120;5.786;2023-01-15T17:01:48;4.40;99.90
33803;DHT22;20110;53.120;5.786;2023-01-15T17:10:24;4.40;99.90
33803;DHT22;20110;53.120;5.786;2023-01-15T17:12:53;4.50;99.90
33803;DHT22;20110;53.120;5.786;2023-01-15T17:17:53;4.70;99.90
33803;DHT22;20110;53.120;5.786;2023-01-15T17:20:22;4.60;99.90
33803;DHT22;20110;53.120;5.786;2023-01-15T17:22:53;4.50;99.90
33803;DHT22;20110;53.120;5.786;2023-01-15T17:25:26;4.40;99.90
33803;DHT22;20110;53.120;5.786;2023-01-15T17:27:56;4.50;99.90
33803;DHT22;20110;53.120;5.786;2023-01-15T17:30:25;4.30;99.90
33803;DHT22;20110;53.120;5.786;2023-01-15T17:32:59;4.00;99.90
33803;DHT22;20110;53.120;5.786;2023-01-15T17:35:31;4.00;99.90
33803;DHT22;20110;53.120;5.786;2023-01-15T17:37:58;4.10;99.90
33803;DHT22;20110;53.120;5.786;2023-01-15T17:40:24;4.20;99.90
33803;DHT22;20110;53.120;5.786;2023-01-15T17:42:51;4.20;99.90
33803;DHT22;20110;53.120;5.786;2023-01-15T17:45:23;4.00;99.90
33803;DHT22;20110;53.120;5.786;2023-01-15T17:47:53;3.70;99.90
33803;DHT22;20110;53.120;5.786;2023-01-15T17:50:20;3.60;99.90
33803;DHT22;20110;53.120;5.786;2023-01-15T17:52:47;3.90;99.90
33803;DHT22;20110;53.120;5.786;2023-01-15T17:55:16;4.10;99.90
33803;DHT22;20110;53.120;5.786;2023-01-15T17:58:02;4.10;99.90
33803;DHT22;20110;53.120;5.786;2023-01-15T18:00:47;3.90;99.90
33803;DHT22;20110;53.120;5.786;2023-01-15T18:03:33;3.90;99.90
33803;DHT22;20110;53.120;5.786;2023-01-15T18:06:19;3.70;99.90
33803;DHT22;20110;53.120;5.786;2023-01-15T18:08:51;3.80;99.90
33803;DHT22;20110;53.120;5.786;2023-01-15T18:11:20;3.80;99.90
33803;DHT22;20110;53.120;5.786;2023-01-15T18:13:46;3.90;99.90
33803;DHT22;20110;53.120;5.786;2023-01-15T18:16:12;3.80;99.90
33803;DHT22;20110;53.120;5.786;2023-01-15T18:18:38;3.90;99.90
33803;DHT22;20110;53.120;5.786;2023-01-15T18:21:03;4.00;99.90
33803;DHT22;20110;53.120;5.786;2023-01-15T18:23:30;4.20;99.90
33803;DHT22;20110;53.120;5.786;2023-01-15T18:26:02;4.30;99.90
33803;DHT22;20110;53.120;5.786;2023-01-15T18:28:31;4.10;99.90
33803;DHT22;20110;53.120;5.786;2023-01-15T18:30:59;3.80;99.90
33803;DHT22;20110;53.120;5.786;2023-01-15T18:33:26;3.50;99.90
33803;DHT22;20110;53.120;5.786;2023-01-15T18:36:12;3.80;99.90
33803;DHT22;20110;53.120;5.786;2023-01-15T18:38:41;3.80;99.90
33803;DHT22;20110;53.120;5.786;2023-01-15T18:41:15;3.90;99.90